sensor_id;sensor_type;location;lat;lon;timestamp;temperature;humidity
13496;DHT22;6820;49.374;8.452;2023-09-19T00:01:55;18.91;99.99
13496;DHT22;6820;49.374;8.452;2023-09-19T00:05:58;18.87;99.99
13496;DHT22;6820;49.374;8.452;2023-09-19T00:10:01;18.84;99.99
13496;DHT22;6820;49.374;8.452;2023-09-19T00:14:03;18.76;99.99
13496;DHT22;6820;49.374;8.452;2023-09-19T00:18:08;18.79;99.99
13496;DHT22;6820;49.374;8.452;2023-09-19T00:22:10;18.78;99.99
13496;DHT22;6820;49.374;8.452;2023-09-19T00:26:14;18.78;99.99
13496;DHT22;6820;49.374;8.452;2023-09-19T00:30:19;18.76;99.99
13496;DHT22;6820;49.374;8.452;2023-09-19T00:34:23;18.74;99.99
13496;DHT22;6820;49.374;8.452;2023-09-19T00:38:25;18.72;99.99
13496;DHT22;6820;49.374;8.452;2023-09-19T00:42:28;18.71;99.99
13496;DHT22;6820;49.374;8.452;2023-09-19T00:46:30;18.69;99.99
13496;DHT22;6820;49.374;8.452;2023-09-19T00:50:34;18.65;99.99
13496;DHT22;6820;49.374;8.452;2023-09-19T00:54:36;18.60;99.99
13496;DHT22;6820;49.374;8.452;2023-09-19T00:58:38;18.59;99.99
13496;DHT22;6820;49.374;8.452;2023-09-19T01:02:42;18.62;99.99
13496;DHT22;6820;49.374;8.452;2023-09-19T01:06:46;18.60;99.99
13496;DHT22;6820;49.374;8.452;2023-09-19T01:10:59;18.59;99.99
13496;DHT22;6820;49.374;8.452;2023-09-19T01:15:08;18.60;99.99
13496;DHT22;6820;49.374;8.452;2023-09-19T01:23:29;18.56;99.99
13496;DHT22;6820;49.374;8.452;2023-09-19T01:28:13;18.54;99.99
13496;DHT22;6820;49.374;8.452;2023-09-19T01:32:41;18.50;99.99
13496;DHT22;6820;49.374;8.452;2023-09-19T01:36:45;18.51;99.99
13496;DHT22;6820;49.374;8.452;2023-09-19T01:40:51;18.50;99.99
13496;DHT22;6820;49.374;8.452;2023-09-19T01:54:11;18.54;99.99
13496;DHT22;6820;49.374;8.452;2023-09-19T01:58:21;18.59;99.99
13496;DHT22;6820;49.374;8.452;2023-09-19T02:02:36;18.64;99.99
13496;DHT22;6820;49.374;8.452;2023-09-19T02:06:40;18.68;99.99
13496;DHT22;6820;49.374;8.452;2023-09-19T02:10:42;18.66;99.99
13496;DHT22;6820;49.374;8.452;2023-09-19T02:14:44;18.68;99.99
13496;DHT22;6820;49.374;8.452;2023-09-19T02:18:47;18.69;99.99
13496;DHT22;6820;49.374;8.452;2023-09-19T02:22:51;18.72;99.99
13496;DHT22;6820;49.374;8.452;2023-09-19T02:26:53;18.74;99.99
13496;DHT22;6820;49.374;8.452;2023-09-19T02:30:56;18.74;99.99
13496;DHT22;6820;49.374;8.452;2023-09-19T02:34:58;18.74;99.99
13496;DHT22;6820;49.374;8.452;2023-09-19T02:39:04;18.74;99.99
13496;DHT22;6820;49.374;8.452;2023-09-19T02:43:07;18.69;99.99
13496;DHT22;6820;49.374;8.452;2023-09-19T02:47:10;18.69;99.99
13496;DHT22;6820;49.374;8.452;2023-09-19T02:51:12;18.65;99.99
13496;DHT22;6820;49.374;8.452;2023-09-19T02:55:15;18.65;99.99
13496;DHT22;6820;49.374;8.452;2023-09-19T02:59:21;18.62;99.99
13496;DHT22;6820;49.374;8.452;2023-09-19T03:03:23;18.60;99.99
13496;DHT22;6820;49.374;8.452;2023-09-19T03:07:25;18.56;99.99
13496;DHT22;6820;49.374;8.452;2023-09-19T03:11:27;18.54;99.99
13496;DHT22;6820;49.374;8.452;2023-09-19T03:15:31;18.51;99.99
13496;DHT22;6820;49.374;8.452;2023-09-19T03:19:33;18.50;99.99
13496;DHT22;6820;49.374;8.452;2023-09-19T03:23:36;18.47;99.99
13496;DHT22;6820;49.374;8.452;2023-09-19T03:27:40;18.46;99.99
13496;DHT22;6820;49.374;8.452;2023-09-19T03:31:43;18.39;99.99
13496;DHT22;6820;49.374;8.452;2023-09-19T03:35:51;18.35;99.99
13496;DHT22;6820;49.374;8.452;2023-09-19T03:39:54;18.31;99.99
13496;DHT22;6820;49.374;8.452;2023-09-19T03:43:56;18.26;99.99
13496;DHT22;6820;49.374;8.452;2023-09-19T03:47:58;18.23;99.99
13496;DHT22;6820;49.374;8.452;2023-09-19T03:52:00;18.25;99.99
13496;DHT22;6820;49.374;8.452;2023-09-19T03:56:01;18.20;99.99
13496;DHT22;6820;49.374;8.452;2023-09-19T04:00:06;18.20;99.99
13496;DHT22;6820;49.374;8.452;2023-09-19T04:04:13;18.20;99.99
13496;DHT22;6820;49.374;8.452;2023-09-19T04:08:15;18.20;99.99
13496;DHT22;6820;49.374;8.452;2023-09-19T04:12:17;18.19;99.99
13496;DHT22;6820;49.374;8.452;2023-09-19T04:16:19;18.14;99.99
13496;DHT22;6820;49.374;8.452;2023-09-19T04:20:21;18.11;99.99
13496;DHT22;6820;49.374;8.452;2023-09-19T04:24:25;18.11;99.99
13496;DHT22;6820;49.374;8.452;2023-09-19T04:28:28;18.13;99.99
13496;DHT22;6820;49.374;8.452;2023-09-19T04:32:30;18.11;99.99
13496;DHT22;6820;49.374;8.452;2023-09-19T04:36:34;18.11;99.99
13496;DHT22;6820;49.374;8.452;2023-09-19T04:40:38;18.11;99.99
13496;DHT22;6820;49.374;8.452;2023-09-19T04:44:41;18.07;99.99
13496;DHT22;6820;49.374;8.452;2023-09-19T04:48:43;18.07;99.99
13496;DHT22;6820;49.374;8.452;2023-09-19T04:52:45;18.04;99.99
13496;DHT22;6820;49.374;8.452;2023-09-19T04:56:47;18.02;99.99
13496;DHT22;6820;49.374;8.452;2023-09-19T05:00:49;18.05;99.99
13496;DHT22;6820;49.374;8.452;2023-09-19T05:04:52;18.05;99.99
13496;DHT22;6820;49.374;8.452;2023-09-19T05:08:55;18.01;99.99
13496;DHT22;6820;49.374;8.452;2023-09-19T05:12:56;17.95;99.99
13496;DHT22;6820;49.374;8.452;2023-09-19T05:16:58;17.91;99.99
13496;DHT22;6820;49.374;8.452;2023-09-19T05:21:01;17.89;99.99
13496;DHT22;6820;49.374;8.452;2023-09-19T05:25:04;17.87;99.99
13496;DHT22;6820;49.374;8.452;2023-09-19T05:29:05;17.86;99.99
13496;DHT22;6820;49.374;8.452;2023-09-19T05:33:09;17.91;99.99
13496;DHT22;6820;49.374;8.452;2023-09-19T05:37:11;17.89;99.99
13496;DHT22;6820;49.374;8.452;2023-09-19T05:41:12;17.87;99.99
13496;DHT22;6820;49.374;8.452;2023-09-19T05:45:15;17.87;99.99
13496;DHT22;6820;49.374;8.452;2023-09-19T05:49:23;17.87;99.99
13496;DHT22;6820;49.374;8.452;2023-09-19T05:53:26;17.91;99.99
13496;DHT22;6820;49.374;8.452;2023-09-19T05:57:27;17.94;99.99
13496;DHT22;6820;49.374;8.452;2023-09-19T06:01:31;17.99;99.99
13496;DHT22;6820;49.374;8.452;2023-09-19T06:05:36;18.02;99.99
13496;DHT22;6820;49.374;8.452;2023-09-19T06:09:37;18.05;99.99
13496;DHT22;6820;49.374;8.452;2023-09-19T06:13:40;18.10;99.99
13496;DHT22;6820;49.374;8.452;2023-09-19T06:17:42;18.14;99.99
13496;DHT22;6820;49.374;8.452;2023-09-19T06:21:47;18.20;99.99
13496;DHT22;6820;49.374;8.452;2023-09-19T06:25:49;18.21;99.99
13496;DHT22;6820;49.374;8.452;2023-09-19T06:29:51;18.23;99.99
13496;DHT22;6820;49.374;8.452;2023-09-19T06:33:53;18.25;99.99
13496;DHT22;6820;49.374;8.452;2023-09-19T06:37:54;18.29;99.99
13496;DHT22;6820;49.374;8.452;2023-09-19T06:41:59;18.31;99.99
13496;DHT22;6820;49.374;8.452;2023-09-19T06:46:02;18.35;99.99
13496;DHT22;6820;49.374;8.452;2023-09-19T06:50:05;18.36;99.99
13496;DHT22;6820;49.374;8.452;2023-09-19T06:54:10;18.34;99.99
13496;DHT22;6820;49.374;8.452;2023-09-19T06:58:12;18.36;99.99
13496;DHT22;6820;49.374;8.452;2023-09-19T07:02:13;18.34;99.99
13496;DHT22;6820;49.374;8.452;2023-09-19T07:06:15;18.35;99.99
13496;DHT22;6820;49.374;8.452;2023-09-19T07:10:17;18.42;99.99
13496;DHT22;6820;49.374;8.452;2023-09-19T07:14:19;18.49;99.99
13496;DHT22;6820;49.374;8.452;2023-09-19T07:18:21;18.50;99.99
13496;DHT22;6820;49.374;8.452;2023-09-19T07:22:23;18.59;99.99
13496;DHT22;6820;49.374;8.452;2023-09-19T07:26:25;18.66;99.99
13496;DHT22;6820;49.374;8.452;2023-09-19T07:30:27;18.69;99.99
13496;DHT22;6820;49.374;8.452;2023-09-19T07:34:29;18.75;99.99
13496;DHT22;6820;49.374;8.452;2023-09-19T07:38:31;18.83;99.99
13496;DHT22;6820;49.374;8.452;2023-09-19T07:42:34;18.86;99.99
13496;DHT22;6820;49.374;8.452;2023-09-19T07:46:36;18.90;99.99
13496;DHT22;6820;49.374;8.452;2023-09-19T07:50:38;18.99;99.99
13496;DHT22;6820;49.374;8.452;2023-09-19T07:54:41;19.10;99.99
13496;DHT22;6820;49.374;8.452;2023-09-19T07:58:45;19.20;99.99
13496;DHT22;6820;49.374;8.452;2023-09-19T08:02:47;19.23;99.99
13496;DHT22;6820;49.374;8.452;2023-09-19T08:07:01;19.39;99.99
13496;DHT22;6820;49.374;8.452;2023-09-19T08:11:06;19.47;99.99
13496;DHT22;6820;49.374;8.452;2023-09-19T08:15:14;19.50;99.99
13496;DHT22;6820;49.374;8.452;2023-09-19T08:19:22;19.60;99.99
13496;DHT22;6820;49.374;8.452;2023-09-19T08:23:24;19.61;99.99
13496;DHT22;6820;49.374;8.452;2023-09-19T08:27:27;19.67;99.99
13496;DHT22;6820;49.374;8.452;2023-09-19T08:31:28;19.67;99.99
13496;DHT22;6820;49.374;8.452;2023-09-19T08:35:31;19.80;99.99
13496;DHT22;6820;49.374;8.452;2023-09-19T08:39:32;19.94;99.99
13496;DHT22;6820;49.374;8.452;2023-09-19T08:43:36;20.05;99.99
13496;DHT22;6820;49.374;8.452;2023-09-19T08:47:40;20.16;99.99
13496;DHT22;6820;49.374;8.452;2023-09-19T08:52:00;20.22;99.99
13496;DHT22;6820;49.374;8.452;2023-09-19T08:56:08;20.33;99.99
13496;DHT22;6820;49.374;8.452;2023-09-19T09:00:12;20.27;99.99
13496;DHT22;6820;49.374;8.452;2023-09-19T09:04:16;20.30;99.99
13496;DHT22;6820;49.374;8.452;2023-09-19T09:08:18;20.34;99.99
13496;DHT22;6820;49.374;8.452;2023-09-19T09:12:24;20.34;99.99
13496;DHT22;6820;49.374;8.452;2023-09-19T09:16:26;20.26;99.99
13496;DHT22;6820;49.374;8.452;2023-09-19T09:20:31;20.48;99.99
13496;DHT22;6820;49.374;8.452;2023-09-19T09:24:33;20.64;99.99
13496;DHT22;6820;49.374;8.452;2023-09-19T09:28:36;20.69;99.99
13496;DHT22;6820;49.374;8.452;2023-09-19T09:32:46;20.91;99.99
13496;DHT22;6820;49.374;8.452;2023-09-19T09:37:13;21.06;99.99
13496;DHT22;6820;49.374;8.452;2023-09-19T09:41:16;21.09;99.99
13496;DHT22;6820;49.374;8.452;2023-09-19T09:45:29;21.09;99.99
13496;DHT22;6820;49.374;8.452;2023-09-19T09:49:42;21.11;99.99
13496;DHT22;6820;49.374;8.452;2023-09-19T09:54:09;21.26;99.99
13496;DHT22;6820;49.374;8.452;2023-09-19T09:58:16;21.30;99.99
13496;DHT22;6820;49.374;8.452;2023-09-19T10:02:26;21.16;99.99
13496;DHT22;6820;49.374;8.452;2023-09-19T10:06:41;21.15;99.99
13496;DHT22;6820;49.374;8.452;2023-09-19T10:10:48;21.22;99.99
13496;DHT22;6820;49.374;8.452;2023-09-19T10:15:05;21.28;99.99
13496;DHT22;6820;49.374;8.452;2023-09-19T10:19:08;21.22;99.99
13496;DHT22;6820;49.374;8.452;2023-09-19T10:23:21;21.06;99.99
13496;DHT22;6820;49.374;8.452;2023-09-19T10:27:28;21.01;99.99
13496;DHT22;6820;49.374;8.452;2023-09-19T10:31:33;21.11;99.99
13496;DHT22;6820;49.374;8.452;2023-09-19T10:35:42;21.00;99.99
13496;DHT22;6820;49.374;8.452;2023-09-19T10:39:47;20.94;99.99
13496;DHT22;6820;49.374;8.452;2023-09-19T10:43:50;21.09;99.99
13496;DHT22;6820;49.374;8.452;2023-09-19T10:47:56;21.18;99.99
13496;DHT22;6820;49.374;8.452;2023-09-19T10:52:01;21.18;99.99
13496;DHT22;6820;49.374;8.452;2023-09-19T10:56:03;21.24;99.99
13496;DHT22;6820;49.374;8.452;2023-09-19T11:00:16;21.40;99.99
13496;DHT22;6820;49.374;8.452;2023-09-19T11:04:27;21.38;99.99
13496;DHT22;6820;49.374;8.452;2023-09-19T11:13:28;21.56;99.99
13496;DHT22;6820;49.374;8.452;2023-09-19T11:17:34;21.70;99.99
13496;DHT22;6820;49.374;8.452;2023-09-19T11:25:43;21.89;99.99
13496;DHT22;6820;49.374;8.452;2023-09-19T11:29:56;21.96;99.99
13496;DHT22;6820;49.374;8.452;2023-09-19T11:42:49;22.45;99.99
13496;DHT22;6820;49.374;8.452;2023-09-19T11:46:55;22.57;99.99
13496;DHT22;6820;49.374;8.452;2023-09-19T11:50:59;22.67;99.99
13496;DHT22;6820;49.374;8.452;2023-09-19T11:55:08;22.82;99.99
13496;DHT22;6820;49.374;8.452;2023-09-19T11:59:13;22.72;99.99
13496;DHT22;6820;49.374;8.452;2023-09-19T12:03:31;22.82;99.99
13496;DHT22;6820;49.374;8.452;2023-09-19T12:07:41;22.89;99.99
13496;DHT22;6820;49.374;8.452;2023-09-19T12:11:47;23.00;99.99
13496;DHT22;6820;49.374;8.452;2023-09-19T12:15:50;23.07;99.99
13496;DHT22;6820;49.374;8.452;2023-09-19T12:19:53;23.11;99.99
13496;DHT22;6820;49.374;8.452;2023-09-19T12:24:11;23.15;99.99
13496;DHT22;6820;49.374;8.452;2023-09-19T12:28:20;23.26;99.99
13496;DHT22;6820;49.374;8.452;2023-09-19T12:32:35;23.29;99.99
13496;DHT22;6820;49.374;8.452;2023-09-19T12:36:37;23.35;99.99
13496;DHT22;6820;49.374;8.452;2023-09-19T12:40:40;23.38;99.99
13496;DHT22;6820;49.374;8.452;2023-09-19T12:44:50;23.56;99.99
13496;DHT22;6820;49.374;8.452;2023-09-19T12:49:19;23.75;99.99
13496;DHT22;6820;49.374;8.452;2023-09-19T12:53:33;23.90;99.99
13496;DHT22;6820;49.374;8.452;2023-09-19T12:57:55;23.92;99.99
13496;DHT22;6820;49.374;8.452;2023-09-19T13:02:20;23.92;99.99
13496;DHT22;6820;49.374;8.452;2023-09-19T13:06:35;24.14;99.99
13496;DHT22;6820;49.374;8.452;2023-09-19T13:15:22;24.24;99.99
13496;DHT22;6820;49.374;8.452;2023-09-19T13:23:52;24.34;99.99
13496;DHT22;6820;49.374;8.452;2023-09-19T13:28:00;24.66;99.99
13496;DHT22;6820;49.374;8.452;2023-09-19T13:32:05;24.80;99.99
13496;DHT22;6820;49.374;8.452;2023-09-19T13:36:07;25.04;99.99
13496;DHT22;6820;49.374;8.452;2023-09-19T13:40:13;25.05;99.99
13496;DHT22;6820;49.374;8.452;2023-09-19T13:44:16;24.87;99.99
13496;DHT22;6820;49.374;8.452;2023-09-19T13:48:18;24.90;99.99
13496;DHT22;6820;49.374;8.452;2023-09-19T13:52:32;25.08;99.99
13496;DHT22;6820;49.374;8.452;2023-09-19T13:56:34;25.11;99.99
13496;DHT22;6820;49.374;8.452;2023-09-19T14:00:38;25.27;99.99
13496;DHT22;6820;49.374;8.452;2023-09-19T14:04:40;25.34;99.99
13496;DHT22;6820;49.374;8.452;2023-09-19T14:08:43;25.19;99.99
13496;DHT22;6820;49.374;8.452;2023-09-19T14:12:49;25.35;99.99
13496;DHT22;6820;49.374;8.452;2023-09-19T14:16:51;25.51;99.99
13496;DHT22;6820;49.374;8.452;2023-09-19T14:20:56;25.05;99.99
13496;DHT22;6820;49.374;8.452;2023-09-19T14:24:58;25.07;99.99
13496;DHT22;6820;49.374;8.452;2023-09-19T14:29:01;25.38;99.99
13496;DHT22;6820;49.374;8.452;2023-09-19T14:33:03;25.34;99.99
13496;DHT22;6820;49.374;8.452;2023-09-19T14:37:06;25.56;99.99
13496;DHT22;6820;49.374;8.452;2023-09-19T14:41:08;25.59;99.99
13496;DHT22;6820;49.374;8.452;2023-09-19T14:45:10;25.64;99.99
13496;DHT22;6820;49.374;8.452;2023-09-19T14:49:12;25.45;99.99
13496;DHT22;6820;49.374;8.452;2023-09-19T14:53:16;25.31;99.99
13496;DHT22;6820;49.374;8.452;2023-09-19T14:57:18;25.16;99.99
13496;DHT22;6820;49.374;8.452;2023-09-19T15:01:20;25.01;99.99
13496;DHT22;6820;49.374;8.452;2023-09-19T15:05:23;24.89;99.99
13496;DHT22;6820;49.374;8.452;2023-09-19T15:09:25;24.63;99.99
13496;DHT22;6820;49.374;8.452;2023-09-19T15:13:27;24.51;99.99
13496;DHT22;6820;49.374;8.452;2023-09-19T15:17:30;24.39;99.99
13496;DHT22;6820;49.374;8.452;2023-09-19T15:21:32;24.16;99.99
13496;DHT22;6820;49.374;8.452;2023-09-19T15:25:34;24.11;99.99
13496;DHT22;6820;49.374;8.452;2023-09-19T15:29:36;24.16;99.99
13496;DHT22;6820;49.374;8.452;2023-09-19T15:33:40;24.26;99.99
13496;DHT22;6820;49.374;8.452;2023-09-19T15:37:42;24.23;99.99
13496;DHT22;6820;49.374;8.452;2023-09-19T15:41:45;24.27;99.99
13496;DHT22;6820;49.374;8.452;2023-09-19T15:45:50;24.36;99.99
13496;DHT22;6820;49.374;8.452;2023-09-19T15:49:52;24.48;99.99
13496;DHT22;6820;49.374;8.452;2023-09-19T15:53:55;24.56;99.99
13496;DHT22;6820;49.374;8.452;2023-09-19T15:57:57;24.63;99.99
13496;DHT22;6820;49.374;8.452;2023-09-19T16:01:59;24.68;99.99
13496;DHT22;6820;49.374;8.452;2023-09-19T16:06:01;24.79;99.99
13496;DHT22;6820;49.374;8.452;2023-09-19T16:10:03;24.83;99.99
13496;DHT22;6820;49.374;8.452;2023-09-19T16:14:05;24.75;99.99
13496;DHT22;6820;49.374;8.452;2023-09-19T16:18:08;24.77;99.99
13496;DHT22;6820;49.374;8.452;2023-09-19T16:22:10;24.74;99.99
13496;DHT22;6820;49.374;8.452;2023-09-19T16:26:13;24.64;99.99
13496;DHT22;6820;49.374;8.452;2023-09-19T16:30:17;24.49;99.99
13496;DHT22;6820;49.374;8.452;2023-09-19T16:34:19;24.41;99.99
13496;DHT22;6820;49.374;8.452;2023-09-19T16:38:23;24.33;99.99
13496;DHT22;6820;49.374;8.452;2023-09-19T16:42:25;24.21;99.99
13496;DHT22;6820;49.374;8.452;2023-09-19T16:46:29;24.02;99.99
13496;DHT22;6820;49.374;8.452;2023-09-19T16:50:31;23.79;99.99
13496;DHT22;6820;49.374;8.452;2023-09-19T16:54:35;23.64;99.99
13496;DHT22;6820;49.374;8.452;2023-09-19T16:58:37;23.53;99.99
13496;DHT22;6820;49.374;8.452;2023-09-19T17:02:40;23.39;99.99
13496;DHT22;6820;49.374;8.452;2023-09-19T17:06:42;23.25;99.99
13496;DHT22;6820;49.374;8.452;2023-09-19T17:10:47;23.12;99.99
13496;DHT22;6820;49.374;8.452;2023-09-19T17:14:49;23.03;99.99
13496;DHT22;6820;49.374;8.452;2023-09-19T17:18:54;22.93;99.99
13496;DHT22;6820;49.374;8.452;2023-09-19T17:22:57;22.85;99.99
13496;DHT22;6820;49.374;8.452;2023-09-19T17:26:59;22.74;99.99
13496;DHT22;6820;49.374;8.452;2023-09-19T17:31:02;22.67;99.99
13496;DHT22;6820;49.374;8.452;2023-09-19T17:35:10;22.56;99.99
13496;DHT22;6820;49.374;8.452;2023-09-19T17:39:13;22.44;99.99
13496;DHT22;6820;49.374;8.452;2023-09-19T17:43:16;22.38;99.99
13496;DHT22;6820;49.374;8.452;2023-09-19T17:47:18;22.24;99.99
13496;DHT22;6820;49.374;8.452;2023-09-19T17:51:20;22.19;99.99
13496;DHT22;6820;49.374;8.452;2023-09-19T17:55:22;22.08;99.99
13496;DHT22;6820;49.374;8.452;2023-09-19T17:59:23;22.02;99.99
13496;DHT22;6820;49.374;8.452;2023-09-19T18:03:25;21.94;99.99
13496;DHT22;6820;49.374;8.452;2023-09-19T18:07:27;21.91;99.99
13496;DHT22;6820;49.374;8.452;2023-09-19T18:11:29;21.86;99.99
13496;DHT22;6820;49.374;8.452;2023-09-19T18:15:32;21.81;99.99
13496;DHT22;6820;49.374;8.452;2023-09-19T18:19:38;21.77;99.99
13496;DHT22;6820;49.374;8.452;2023-09-19T18:23:40;21.71;99.99
13496;DHT22;6820;49.374;8.452;2023-09-19T18:27:42;21.59;99.99
13496;DHT22;6820;49.374;8.452;2023-09-19T18:31:44;21.59;99.99
13496;DHT22;6820;49.374;8.452;2023-09-19T18:35:46;21.58;99.99
13496;DHT22;6820;49.374;8.452;2023-09-19T18:39:48;21.53;99.99
13496;DHT22;6820;49.374;8.452;2023-09-19T18:43:51;21.46;99.99
13496;DHT22;6820;49.374;8.452;2023-09-19T18:52:50;21.42;99.99
13496;DHT22;6820;49.374;8.452;2023-09-19T18:56:52;21.37;99.99
13496;DHT22;6820;49.374;8.452;2023-09-19T19:01:00;21.34;99.99
13496;DHT22;6820;49.374;8.452;2023-09-19T19:05:03;21.30;99.99
13496;DHT22;6820;49.374;8.452;2023-09-19T19:09:12;21.24;99.99
13496;DHT22;6820;49.374;8.452;2023-09-19T19:13:13;21.31;99.99
13496;DHT22;6820;49.374;8.452;2023-09-19T19:17:15;21.15;99.99
13496;DHT22;6820;49.374;8.452;2023-09-19T19:21:17;21.11;99.99
13496;DHT22;6820;49.374;8.452;2023-09-19T19:25:24;21.08;99.99
13496;DHT22;6820;49.374;8.452;2023-09-19T19:29:29;21.01;99.99
13496;DHT22;6820;49.374;8.452;2023-09-19T19:33:31;21.11;99.99
13496;DHT22;6820;49.374;8.452;2023-09-19T19:37:32;20.94;99.99
13496;DHT22;6820;49.374;8.452;2023-09-19T19:41:34;20.85;99.99
13496;DHT22;6820;49.374;8.452;2023-09-19T19:45:40;20.82;99.99
13496;DHT22;6820;49.374;8.452;2023-09-19T19:49:42;20.79;99.99
13496;DHT22;6820;49.374;8.452;2023-09-19T19:53:46;20.75;99.99
13496;DHT22;6820;49.374;8.452;2023-09-19T19:57:49;20.71;99.99
13496;DHT22;6820;49.374;8.452;2023-09-19T20:01:50;20.71;99.99
13496;DHT22;6820;49.374;8.452;2023-09-19T20:05:52;20.69;99.99
13496;DHT22;6820;49.374;8.452;2023-09-19T20:09:54;20.64;99.99
13496;DHT22;6820;49.374;8.452;2023-09-19T20:13:56;20.68;99.99
13496;DHT22;6820;49.374;8.452;2023-09-19T20:18:00;20.66;99.99
13496;DHT22;6820;49.374;8.452;2023-09-19T20:22:03;20.68;99.99
13496;DHT22;6820;49.374;8.452;2023-09-19T20:26:09;20.64;99.99
13496;DHT22;6820;49.374;8.452;2023-09-19T20:30:13;20.61;99.99
13496;DHT22;6820;49.374;8.452;2023-09-19T20:34:15;20.61;99.99
13496;DHT22;6820;49.374;8.452;2023-09-19T20:38:16;20.60;99.99
13496;DHT22;6820;49.374;8.452;2023-09-19T20:42:18;20.56;99.99
13496;DHT22;6820;49.374;8.452;2023-09-19T20:46:22;20.53;99.99
13496;DHT22;6820;49.374;8.452;2023-09-19T20:50:24;20.53;99.99
13496;DHT22;6820;49.374;8.452;2023-09-19T20:54:28;20.51;99.99
13496;DHT22;6820;49.374;8.452;2023-09-19T20:58:35;20.48;99.99
13496;DHT22;6820;49.374;8.452;2023-09-19T21:02:38;20.40;99.99
13496;DHT22;6820;49.374;8.452;2023-09-19T21:06:39;20.31;99.99
13496;DHT22;6820;49.374;8.452;2023-09-19T21:10:41;20.25;99.99
13496;DHT22;6820;49.374;8.452;2023-09-19T21:14:43;20.17;99.99
13496;DHT22;6820;49.374;8.452;2023-09-19T21:18:45;20.15;99.99
13496;DHT22;6820;49.374;8.452;2023-09-19T21:22:47;20.13;99.99
13496;DHT22;6820;49.374;8.452;2023-09-19T21:26:49;20.17;99.99
13496;DHT22;6820;49.374;8.452;2023-09-19T21:30:59;20.19;99.99
13496;DHT22;6820;49.374;8.452;2023-09-19T21:35:02;20.17;99.99
13496;DHT22;6820;49.374;8.452;2023-09-19T21:39:06;20.19;99.99
13496;DHT22;6820;49.374;8.452;2023-09-19T21:43:07;20.19;99.99
13496;DHT22;6820;49.374;8.452;2023-09-19T21:47:09;20.17;99.99
13496;DHT22;6820;49.374;8.452;2023-09-19T21:51:11;20.17;99.99
13496;DHT22;6820;49.374;8.452;2023-09-19T21:55:13;20.15;99.99
13496;DHT22;6820;49.374;8.452;2023-09-19T21:59:14;20.15;99.99
13496;DHT22;6820;49.374;8.452;2023-09-19T22:03:16;20.13;99.99
13496;DHT22;6820;49.374;8.452;2023-09-19T22:07:20;20.13;99.99
13496;DHT22;6820;49.374;8.452;2023-09-19T22:11:22;20.12;99.99
13496;DHT22;6820;49.374;8.452;2023-09-19T22:15:24;20.07;99.99
13496;DHT22;6820;49.374;8.452;2023-09-19T22:19:27;20.08;99.99
13496;DHT22;6820;49.374;8.452;2023-09-19T22:23:28;20.04;99.99
13496;DHT22;6820;49.374;8.452;2023-09-19T22:27:34;20.04;99.99
13496;DHT22;6820;49.374;8.452;2023-09-19T22:31:36;20.08;99.99
13496;DHT22;6820;49.374;8.452;2023-09-19T22:35:43;20.12;99.99
13496;DHT22;6820;49.374;8.452;2023-09-19T22:39:48;20.13;99.99
13496;DHT22;6820;49.374;8.452;2023-09-19T22:43:50;20.10;99.99
13496;DHT22;6820;49.374;8.452;2023-09-19T22:47:57;20.05;99.99
13496;DHT22;6820;49.374;8.452;2023-09-19T22:51:59;20.04;99.99
13496;DHT22;6820;49.374;8.452;2023-09-19T22:56:01;20.01;99.99
13496;DHT22;6820;49.374;8.452;2023-09-19T23:00:11;19.97;99.99
13496;DHT22;6820;49.374;8.452;2023-09-19T23:04:16;20.01;99.99
13496;DHT22;6820;49.374;8.452;2023-09-19T23:08:18;20.01;99.99
13496;DHT22;6820;49.374;8.452;2023-09-19T23:12:20;20.02;99.99
13496;DHT22;6820;49.374;8.452;2023-09-19T23:16:22;20.00;99.99
13496;DHT22;6820;49.374;8.452;2023-09-19T23:20:34;19.92;99.99
13496;DHT22;6820;49.374;8.452;2023-09-19T23:24:40;19.86;99.99
13496;DHT22;6820;49.374;8.452;2023-09-19T23:28:43;19.83;99.99
13496;DHT22;6820;49.374;8.452;2023-09-19T23:32:45;19.79;99.99
13496;DHT22;6820;49.374;8.452;2023-09-19T23:36:47;19.76;99.99
13496;DHT22;6820;49.374;8.452;2023-09-19T23:40:48;19.70;99.99
13496;DHT22;6820;49.374;8.452;2023-09-19T23:44:53;19.62;99.99
13496;DHT22;6820;49.374;8.452;2023-09-19T23:48:56;19.57;99.99
13496;DHT22;6820;49.374;8.452;2023-09-19T23:52:58;19.52;99.99
13496;DHT22;6820;49.374;8.452;2023-09-19T23:57:02;19.45;99.99
